Time;durP1;ratioP1;P1;durP2;ratioP2;P2;SDS_P1;SDS_P2;PMS_P1;PMS_P2;Temp;Humidity;BMP_temperature;BMP_pressure;BME280_temperature;BME280_humidity;BME280_pressure;Samples;Min_cycle;Max_cycle;Signal;HPM_P1;HPM_P2
2022/01/02 00:00:00;;;;;;;9.30;4.80;;;10.30;99.90;;;;;;5140746;28;20455;-50
2022/01/02 00:02:32;;;;;;;12.23;4.60;;;10.20;99.90;;;;;;5145235;28;20441;-51
2022/01/02 00:05:08;;;;;;;7.47;4.93;;;10.20;99.90;;;;;;5140357;28;20469;-51
2022/01/02 00:08:02;;;;;;;7.53;4.67;;;10.20;99.90;;;;;;5130578;28;20443;-50
2022/01/02 00:10:36;;;;;;;4.37;3.77;;;10.20;99.90;;;;;;5139279;28;20448;-51
2022/01/02 00:13:10;;;;;;;6.73;4.80;;;10.10;99.90;;;;;;5144089;28;20510;-50
2022/01/02 00:15:41;;;;;;;12.47;5.10;;;10.00;99.90;;;;;;5145265;28;20440;-50
2022/01/02 00:18:15;;;;;;;5.47;4.03;;;10.00;99.90;;;;;;5143130;28;20443;-50
2022/01/02 00:20:48;;;;;;;17.47;4.70;;;10.00;99.90;;;;;;5142952;28;20483;-49
2022/01/02 00:23:23;;;;;;;4.70;3.70;;;10.10;99.90;;;;;;5129663;28;20465;-50
2022/01/02 00:25:55;;;;;;;14.93;5.40;;;10.10;99.90;;;;;;5112508;28;20444;-50
2022/01/02 00:28:27;;;;;;;9.73;5.67;;;10.00;99.90;;;;;;5144829;28;22663;-49
2022/01/02 00:30:59;;;;;;;7.73;5.20;;;10.00;99.90;;;;;;5141432;28;20453;-49
2022/01/02 00:33:29;;;;;;;6.67;5.13;;;10.10;99.90;;;;;;5143008;28;20440;-50
2022/01/02 00:36:04;;;;;;;5.40;4.03;;;10.00;99.90;;;;;;5126630;28;20468;-51
2022/01/02 00:38:35;;;;;;;16.10;4.67;;;10.00;99.90;;;;;;5139266;28;20563;-49
2022/01/02 00:41:06;;;;;;;9.30;4.10;;;10.10;99.90;;;;;;5124985;28;20461;-50
2022/01/02 00:43:47;;;;;;;9.03;5.30;;;9.90;99.90;;;;;;5138770;28;21003;-50
2022/01/02 00:46:21;;;;;;;9.00;5.00;;;9.80;99.90;;;;;;5141143;28;20177;-49
2022/01/02 00:48:59;;;;;;;10.53;5.33;;;9.90;99.90;;;;;;5137048;28;20790;-48
2022/01/02 00:51:47;;;;;;;13.77;5.93;;;10.00;99.90;;;;;;5123949;28;20850;-49
2022/01/02 00:54:18;;;;;;;10.40;5.47;;;9.90;99.90;;;;;;5141105;28;20432;-49
2022/01/02 00:56:51;;;;;;;10.47;5.10;;;9.90;99.90;;;;;;5124039;28;20447;-50
2022/01/02 00:59:30;;;;;;;7.30;5.20;;;9.80;99.90;;;;;;5124435;28;20197;-50
2022/01/02 01:02:03;;;;;;;7.07;3.77;;;9.70;99.90;;;;;;5118535;28;20436;-50
2022/01/02 01:04:41;;;;;;;6.87;5.07;;;9.80;99.90;;;;;;5125713;28;20497;-49
2022/01/02 01:07:13;;;;;;;12.23;4.80;;;9.90;99.90;;;;;;5143411;28;20942;-49
2022/01/02 01:09:45;;;;;;;8.80;5.70;;;10.00;99.90;;;;;;5140782;28;20463;-50
2022/01/02 01:12:16;;;;;;;13.13;6.10;;;9.70;99.90;;;;;;5118394;28;20440;-49
2022/01/02 01:14:47;;;;;;;11.83;4.83;;;9.70;99.90;;;;;;5143942;28;20444;-50
2022/01/02 01:17:18;;;;;;;10.00;5.90;;;9.60;99.90;;;;;;5138038;28;20563;-49
2022/01/02 01:19:51;;;;;;;14.70;5.50;;;9.80;99.90;;;;;;5141617;28;20460;-51
2022/01/02 01:22:22;;;;;;;9.43;5.50;;;9.80;99.90;;;;;;5144980;28;20196;-49
2022/01/02 01:24:52;;;;;;;8.70;5.63;;;9.70;99.90;;;;;;5138381;28;20473;-49
2022/01/02 01:27:23;;;;;;;19.43;5.70;;;9.60;99.90;;;;;;5130813;28;20197;-50
2022/01/02 01:29:54;;;;;;;15.90;6.23;;;9.70;99.90;;;;;;5128259;28;20193;-52
2022/01/02 01:32:24;;;;;;;12.83;5.97;;;9.80;99.90;;;;;;5137968;28;20557;-50
2022/01/02 01:34:55;;;;;;;5.93;5.13;;;9.70;99.90;;;;;;5120799;28;20260;-49
2022/01/02 01:37:25;;;;;;;8.77;5.50;;;9.60;99.90;;;;;;5148432;28;20185;-49
2022/01/02 01:39:56;;;;;;;11.07;5.47;;;9.60;99.90;;;;;;5143829;28;20697;-50
2022/01/02 01:42:36;;;;;;;7.43;5.37;;;9.70;99.90;;;;;;5145291;28;20182;-49
2022/01/02 01:47:53;;;;;;;12.50;5.30;;;9.90;99.90;;;;;;5130745;28;20455;-49
2022/01/02 01:50:31;;;;;;;10.50;6.10;;;9.70;99.90;;;;;;5136343;28;20468;-49
2022/01/02 01:53:02;;;;;;;9.10;5.87;;;9.70;99.90;;;;;;5135681;28;20921;-50
2022/01/02 01:55:34;;;;;;;11.37;6.47;;;9.70;99.90;;;;;;5139042;28;20432;-50
2022/01/02 01:58:06;;;;;;;11.47;5.53;;;9.60;99.90;;;;;;5143263;28;20435;-50
2022/01/02 02:00:37;;;;;;;6.90;5.53;;;9.50;99.90;;;;;;5142935;28;20448;-49
2022/01/02 02:03:08;;;;;;;5.83;4.87;;;9.60;99.90;;;;;;5129461;28;20444;-50
2022/01/02 02:05:38;;;;;;;16.43;6.70;;;9.60;99.90;;;;;;5145894;28;20196;-51
2022/01/02 02:08:10;;;;;;;4.27;3.80;;;9.50;99.90;;;;;;5143542;28;20515;-51
2022/01/02 02:10:45;;;;;;;7.53;5.60;;;9.50;99.90;;;;;;5141559;28;20285;-50
2022/01/02 02:13:16;;;;;;;10.30;6.33;;;9.40;99.90;;;;;;5128140;28;20565;-51
2022/01/02 02:15:48;;;;;;;8.67;6.03;;;9.30;99.90;;;;;;5142325;28;20464;-50
2022/01/02 02:18:19;;;;;;;9.67;6.03;;;9.50;99.90;;;;;;5152587;28;20186;-50
2022/01/02 02:20:49;;;;;;;22.83;6.57;;;9.50;99.90;;;;;;5143140;28;20499;-49
2022/01/02 02:23:20;;;;;;;6.50;5.23;;;9.30;99.90;;;;;;5138468;28;20221;-50
2022/01/02 02:25:51;;;;;;;13.70;5.47;;;9.30;99.90;;;;;;5111292;28;20186;-49
2022/01/02 02:28:26;;;;;;;9.50;5.83;;;9.40;99.90;;;;;;5129335;28;20192;-51
2022/01/02 02:30:56;;;;;;;10.83;5.73;;;9.50;99.90;;;;;;5142082;28;20210;-50
2022/01/02 02:33:27;;;;;;;17.50;6.27;;;9.40;99.90;;;;;;5137054;28;21066;-50
2022/01/02 02:35:58;;;;;;;11.03;5.20;;;9.30;99.90;;;;;;5140050;28;20186;-49
2022/01/02 02:38:28;;;;;;;7.70;5.50;;;9.30;99.90;;;;;;5137230;28;20201;-51
2022/01/02 02:40:59;;;;;;;6.80;5.50;;;9.30;99.90;;;;;;5143224;28;20207;-50
2022/01/02 02:43:37;;;;;;;10.87;5.80;;;9.10;99.90;;;;;;5132961;28;20205;-50
2022/01/02 02:49:05;;;;;;;7.93;5.27;;;8.90;99.90;;;;;;5143147;28;20459;-51
2022/01/02 02:52:07;;;;;;;10.00;4.90;;;9.10;99.90;;;;;;5113687;28;20436;-52
2022/01/02 02:54:40;;;;;;;7.87;5.07;;;9.10;99.90;;;;;;5141716;28;20443;-53
2022/01/02 02:57:14;;;;;;;6.40;5.30;;;9.10;99.90;;;;;;5133480;28;20444;-52
2022/01/02 02:59:44;;;;;;;11.17;5.90;;;9.00;99.90;;;;;;5143365;28;20480;-50
2022/01/02 03:02:15;;;;;;;10.23;4.47;;;9.00;99.90;;;;;;5136957;28;20433;-50
2022/01/02 03:04:45;;;;;;;6.73;5.37;;;9.10;99.90;;;;;;5146097;28;20568;-51
2022/01/02 03:07:16;;;;;;;10.27;5.93;;;9.00;99.90;;;;;;5141997;28;20185;-50
2022/01/02 03:09:49;;;;;;;8.77;5.50;;;9.10;99.90;;;;;;5148295;28;20678;-50
2022/01/02 03:12:20;;;;;;;13.23;6.10;;;9.00;99.90;;;;;;5125034;28;20177;-50
2022/01/02 03:14:50;;;;;;;8.73;5.50;;;9.00;99.90;;;;;;5143957;28;20507;-50
2022/01/02 03:17:21;;;;;;;8.80;5.40;;;8.90;99.90;;;;;;5124811;28;20181;-49
2022/01/02 03:19:51;;;;;;;7.13;5.40;;;9.10;99.90;;;;;;5143549;28;20205;-49
2022/01/02 03:22:22;;;;;;;10.67;5.73;;;9.00;99.90;;;;;;5131851;28;20181;-51
2022/01/02 03:24:52;;;;;;;8.80;5.23;;;9.30;99.90;;;;;;5152767;28;20239;-51
2022/01/02 03:27:24;;;;;;;9.20;5.57;;;9.20;99.90;;;;;;5139788;28;20186;-50
2022/01/02 03:29:55;;;;;;;10.13;6.20;;;9.20;99.90;;;;;;5145212;28;21460;-49
2022/01/02 03:32:25;;;;;;;10.43;7.40;;;9.10;99.90;;;;;;5143784;28;20520;-48
2022/01/02 03:34:56;;;;;;;11.33;5.40;;;9.00;99.90;;;;;;5129321;28;20185;-49
2022/01/02 03:37:28;;;;;;;11.97;5.93;;;9.20;99.90;;;;;;5143153;28;20201;-51
2022/01/02 03:40:05;;;;;;;11.13;6.57;;;9.00;99.90;;;;;;5143626;28;20228;-50
2022/01/02 03:42:37;;;;;;;11.67;5.97;;;9.00;99.90;;;;;;5139481;28;20480;-49
2022/01/02 03:45:09;;;;;;;6.10;4.70;;;8.90;99.90;;;;;;5141981;28;20824;-49
2022/01/02 03:47:39;;;;;;;8.13;4.80;;;8.90;99.90;;;;;;5127645;28;20436;-50
2022/01/02 03:50:10;;;;;;;10.77;4.73;;;8.80;99.90;;;;;;5126838;28;20472;-48
2022/01/02 03:52:41;;;;;;;11.23;5.63;;;8.90;99.90;;;;;;5145126;28;20683;-50
2022/01/02 03:55:12;;;;;;;8.10;6.20;;;9.20;99.90;;;;;;5125582;28;20205;-50
2022/01/02 03:57:43;;;;;;;10.27;5.87;;;9.30;99.90;;;;;;5144102;28;20187;-49
2022/01/02 04:00:14;;;;;;;7.90;6.20;;;9.30;99.90;;;;;;5137996;28;20524;-49
2022/01/02 04:02:45;;;;;;;6.37;5.33;;;9.10;99.90;;;;;;5118363;28;20233;-50
2022/01/02 04:05:17;;;;;;;6.27;4.70;;;9.00;99.90;;;;;;5140236;28;20476;-50
2022/01/02 04:07:48;;;;;;;6.73;5.60;;;9.00;99.90;;;;;;5122772;28;20434;-50
2022/01/02 04:10:19;;;;;;;9.30;5.90;;;9.00;99.90;;;;;;5127915;28;20449;-51
2022/01/02 04:12:49;;;;;;;8.10;5.73;;;9.00;99.90;;;;;;5142475;28;21011;-49
2022/01/02 04:15:20;;;;;;;7.87;5.77;;;9.00;99.90;;;;;;5142381;28;20193;-50
2022/01/02 04:17:51;;;;;;;5.93;5.27;;;9.10;99.90;;;;;;5141325;28;20209;-49
2022/01/02 04:20:21;;;;;;;10.30;4.90;;;9.00;99.90;;;;;;5140856;28;20734;-49
2022/01/02 04:22:52;;;;;;;4.93;4.53;;;8.90;99.90;;;;;;5131628;28;20223;-49
2022/01/02 04:25:22;;;;;;;6.30;5.20;;;8.90;99.90;;;;;;5138539;28;20220;-50
2022/01/02 04:27:53;;;;;;;5.40;4.90;;;8.80;99.90;;;;;;5142179;28;20686;-50
2022/01/02 04:30:23;;;;;;;6.20;4.80;;;8.90;99.90;;;;;;5124782;28;20300;-50
2022/01/02 04:32:54;;;;;;;6.70;5.10;;;8.80;99.90;;;;;;5149086;28;20173;-49
2022/01/02 04:35:25;;;;;;;7.47;4.73;;;8.80;99.90;;;;;;5123177;28;20704;-51
2022/01/02 04:37:55;;;;;;;9.93;4.40;;;8.80;99.90;;;;;;5141781;28;20194;-49
2022/01/02 04:40:26;;;;;;;4.93;4.53;;;8.70;99.90;;;;;;5139596;28;20201;-50
2022/01/02 04:42:57;;;;;;;8.87;5.20;;;8.70;99.90;;;;;;5142878;28;20190;-49
2022/01/02 04:45:27;;;;;;;6.23;4.00;;;8.70;99.90;;;;;;5139176;28;20476;-49
2022/01/02 04:47:58;;;;;;;6.23;4.03;;;8.70;99.90;;;;;;5141998;28;20638;-51
2022/01/02 04:50:31;;;;;;;8.80;6.10;;;8.60;99.90;;;;;;5142581;28;20212;-50
2022/01/02 04:53:02;;;;;;;7.07;4.90;;;8.60;99.90;;;;;;5142285;28;20236;-49
2022/01/02 04:55:32;;;;;;;9.70;5.10;;;8.60;99.90;;;;;;5125604;28;20429;-50
2022/01/02 04:58:05;;;;;;;5.33;4.80;;;8.60;99.90;;;;;;5130382;28;20236;-49
2022/01/02 05:00:35;;;;;;;11.50;5.60;;;8.50;99.90;;;;;;5142997;28;20248;-50
2022/01/02 05:03:06;;;;;;;13.47;5.93;;;8.50;99.90;;;;;;5108828;28;20437;-49
2022/01/02 05:05:36;;;;;;;5.80;5.20;;;8.50;99.90;;;;;;5142713;28;20181;-49
2022/01/02 05:08:07;;;;;;;5.50;4.80;;;8.50;99.90;;;;;;5143163;28;20198;-49
2022/01/02 05:10:37;;;;;;;6.60;5.07;;;8.50;99.90;;;;;;5125625;28;20296;-49
2022/01/02 05:13:08;;;;;;;10.33;5.07;;;8.50;99.90;;;;;;5131358;28;20186;-49
2022/01/02 05:15:38;;;;;;;4.93;4.07;;;8.40;99.90;;;;;;5142090;28;20182;-49
2022/01/02 05:18:09;;;;;;;14.63;5.07;;;8.30;99.90;;;;;;5130444;28;20232;-49
2022/01/02 05:20:44;;;;;;;11.23;5.53;;;8.30;99.90;;;;;;5138441;28;20225;-49
2022/01/02 05:23:15;;;;;;;7.00;5.60;;;8.20;99.90;;;;;;5126766;28;20280;-50
2022/01/02 05:25:46;;;;;;;5.73;4.87;;;8.20;99.90;;;;;;5141119;28;20444;-49
2022/01/02 05:28:17;;;;;;;7.60;5.00;;;8.10;99.90;;;;;;5110010;28;20437;-48
2022/01/02 05:30:47;;;;;;;12.33;5.80;;;8.10;99.90;;;;;;5130139;28;20372;-48
2022/01/02 05:33:18;;;;;;;5.23;4.73;;;8.10;99.90;;;;;;5145758;28;20186;-49
2022/01/02 05:35:48;;;;;;;6.60;5.57;;;8.10;99.90;;;;;;5142714;28;20250;-49
2022/01/02 05:38:19;;;;;;;8.23;5.53;;;8.10;99.90;;;;;;5128630;28;20177;-49
2022/01/02 05:40:51;;;;;;;5.90;5.00;;;8.10;99.90;;;;;;5143313;28;20221;-49
2022/01/02 05:43:22;;;;;;;5.13;4.43;;;8.20;99.90;;;;;;5148677;28;20745;-49
2022/01/02 05:45:52;;;;;;;7.53;5.93;;;8.30;99.90;;;;;;5146993;28;20496;-48
2022/01/02 05:48:23;;;;;;;9.83;5.93;;;8.30;99.90;;;;;;5147236;28;20196;-50
2022/01/02 05:50:54;;;;;;;6.90;5.23;;;8.30;99.90;;;;;;5143647;28;21159;-50
2022/01/02 05:53:25;;;;;;;12.43;6.87;;;8.30;99.90;;;;;;5142484;28;20550;-49
2022/01/02 05:55:56;;;;;;;12.47;6.70;;;8.30;99.90;;;;;;5146140;28;20429;-50
2022/01/02 05:58:26;;;;;;;8.03;5.40;;;8.20;99.90;;;;;;5171689;23;20490;-53
2022/01/02 06:00:57;;;;;;;7.70;5.07;;;8.20;99.90;;;;;;5187151;28;20227;-52
2022/01/02 06:03:27;;;;;;;12.10;5.97;;;8.10;99.90;;;;;;5179003;28;20247;-51
2022/01/02 06:05:58;;;;;;;9.67;6.20;;;8.20;99.90;;;;;;5184919;28;20191;-52
2022/01/02 06:08:29;;;;;;;5.10;4.50;;;8.20;99.90;;;;;;5168765;28;20661;-51
2022/01/02 06:10:59;;;;;;;6.70;5.40;;;8.10;99.90;;;;;;5152917;28;20176;-51
2022/01/02 06:13:30;;;;;;;9.87;5.80;;;8.10;99.90;;;;;;5162910;28;20196;-53
2022/01/02 06:16:00;;;;;;;12.67;5.93;;;8.10;99.90;;;;;;5169744;28;20177;-53
2022/01/02 06:18:31;;;;;;;8.93;6.17;;;8.10;99.90;;;;;;5147149;28;20260;-52
2022/01/02 06:21:01;;;;;;;16.83;7.50;;;8.10;99.90;;;;;;5136506;28;20192;-51
2022/01/02 06:23:32;;;;;;;12.53;6.47;;;8.10;99.90;;;;;;5147085;28;20284;-51
2022/01/02 06:26:02;;;;;;;9.77;6.07;;;8.10;99.90;;;;;;5154444;28;20243;-53
2022/01/02 06:28:33;;;;;;;6.10;5.27;;;8.10;99.90;;;;;;5149622;28;20205;-52
2022/01/02 06:31:03;;;;;;;15.83;6.30;;;8.20;99.90;;;;;;5145541;28;20169;-51
2022/01/02 06:33:35;;;;;;;9.53;6.00;;;8.20;99.90;;;;;;5166014;28;20549;-52
2022/01/02 06:36:05;;;;;;;12.57;6.07;;;8.20;99.90;;;;;;5169438;28;20185;-51
2022/01/02 06:38:35;;;;;;;8.30;6.03;;;8.20;99.90;;;;;;5144272;28;20536;-51
2022/01/02 06:41:06;;;;;;;10.40;5.73;;;8.20;99.90;;;;;;5148543;28;20192;-51
2022/01/02 06:43:36;;;;;;;6.50;5.20;;;8.30;99.90;;;;;;5167212;28;20588;-52
2022/01/02 06:46:07;;;;;;;9.77;6.40;;;8.40;99.90;;;;;;5168869;28;20170;-52
2022/01/02 06:48:37;;;;;;;5.33;4.63;;;8.40;99.90;;;;;;5150872;28;20208;-52
2022/01/02 06:51:08;;;;;;;16.60;6.70;;;8.50;99.90;;;;;;5148744;28;20264;-52
2022/01/02 06:53:39;;;;;;;8.97;5.60;;;8.50;99.90;;;;;;5168122;28;20185;-51
2022/01/02 06:56:09;;;;;;;10.20;5.23;;;8.50;99.90;;;;;;5146365;28;20556;-51
2022/01/02 06:58:40;;;;;;;6.60;5.20;;;8.50;99.90;;;;;;5165137;28;20307;-51
2022/01/02 07:01:11;;;;;;;5.23;4.70;;;8.50;99.90;;;;;;5164261;28;20193;-52
2022/01/02 07:03:41;;;;;;;5.07;4.67;;;8.50;99.90;;;;;;5165655;28;20477;-52
2022/01/02 07:06:12;;;;;;;11.00;6.87;;;8.60;99.90;;;;;;5149043;28;20189;-52
2022/01/02 07:08:42;;;;;;;10.50;5.50;;;8.80;99.90;;;;;;5166934;28;20234;-51
2022/01/02 07:11:13;;;;;;;12.73;5.40;;;8.80;99.90;;;;;;5170013;28;20257;-50
2022/01/02 07:13:43;;;;;;;8.20;5.10;;;9.00;99.90;;;;;;5145200;28;20181;-52
2022/01/02 07:16:14;;;;;;;10.30;6.17;;;9.00;99.90;;;;;;5150216;28;20188;-52
2022/01/02 07:18:44;;;;;;;7.70;5.57;;;9.00;99.90;;;;;;5124026;28;20731;-52
2022/01/02 07:21:17;;;;;;;5.40;4.90;;;9.00;99.90;;;;;;5151844;28;20284;-51
2022/01/02 07:23:48;;;;;;;6.30;5.40;;;9.10;99.90;;;;;;5152998;28;20204;-52
2022/01/02 07:26:19;;;;;;;9.10;4.70;;;9.10;99.90;;;;;;5162031;28;20952;-52
2022/01/02 07:28:49;;;;;;;7.70;4.43;;;9.10;99.90;;;;;;5146446;28;20570;-53
2022/01/02 07:31:20;;;;;;;5.27;4.20;;;9.10;99.90;;;;;;5140091;28;20273;-51
2022/01/02 07:33:50;;;;;;;8.70;4.57;;;9.20;99.90;;;;;;5144352;28;20185;-53
2022/01/02 07:36:21;;;;;;;6.00;4.60;;;9.20;99.90;;;;;;5167816;28;21632;-52
2022/01/02 07:38:51;;;;;;;7.53;3.93;;;9.20;99.90;;;;;;5145149;28;20212;-53
2022/01/02 07:41:22;;;;;;;4.47;4.13;;;9.10;99.90;;;;;;5129011;28;20193;-52
2022/01/02 07:43:54;;;;;;;7.87;3.83;;;9.20;99.90;;;;;;5147217;28;20200;-52
2022/01/02 07:46:25;;;;;;;4.70;4.17;;;9.20;99.90;;;;;;5147462;28;20641;-53
2022/01/02 07:48:55;;;;;;;3.87;3.50;;;9.20;99.90;;;;;;5163971;28;20522;-52
2022/01/02 07:51:26;;;;;;;6.53;4.23;;;9.20;99.90;;;;;;5166636;28;20185;-52
2022/01/02 07:53:58;;;;;;;9.27;4.90;;;9.20;99.90;;;;;;5165324;28;20542;-51
2022/01/02 07:56:28;;;;;;;8.87;5.10;;;9.20;99.90;;;;;;5161448;28;20197;-52
2022/01/02 07:58:59;;;;;;;5.07;4.10;;;9.30;99.90;;;;;;5161502;28;20550;-53
2022/01/02 08:01:30;;;;;;;8.00;6.07;;;9.30;99.90;;;;;;5148928;28;20715;-53
2022/01/02 08:04:00;;;;;;;5.10;4.20;;;9.40;99.90;;;;;;5160506;28;20526;-52
2022/01/02 08:06:31;;;;;;;4.20;3.80;;;9.60;99.90;;;;;;5163692;28;20193;-51
2022/01/02 08:09:02;;;;;;;13.00;5.70;;;9.60;99.90;;;;;;5147638;28;20221;-52
2022/01/02 08:11:32;;;;;;;5.20;4.50;;;9.60;99.90;;;;;;5141608;28;20184;-52
2022/01/02 08:14:03;;;;;;;5.03;4.57;;;9.60;99.90;;;;;;5160358;28;20452;-51
2022/01/02 08:16:34;;;;;;;7.40;3.47;;;9.60;99.90;;;;;;5163286;28;20193;-52
2022/01/02 08:19:08;;;;;;;6.67;3.90;;;9.60;99.90;;;;;;5159056;28;20207;-54
2022/01/02 08:21:41;;;;;;;3.60;3.30;;;9.70;99.90;;;;;;5144926;28;20181;-52
2022/01/02 08:24:12;;;;;;;6.80;4.40;;;9.70;99.90;;;;;;5164567;28;20530;-52
2022/01/02 08:26:42;;;;;;;10.37;3.83;;;9.80;99.90;;;;;;5164765;28;20443;-52
2022/01/02 08:29:13;;;;;;;14.83;5.63;;;9.80;99.90;;;;;;5161052;28;20203;-51
2022/01/02 08:31:43;;;;;;;5.73;4.53;;;9.90;99.90;;;;;;5159107;28;22064;-52
2022/01/02 08:34:14;;;;;;;7.80;4.50;;;9.90;99.90;;;;;;5163757;28;20209;-52
2022/01/02 08:36:44;;;;;;;10.50;4.30;;;10.00;99.90;;;;;;5141465;28;20188;-51
2022/01/02 08:39:15;;;;;;;4.23;3.43;;;10.10;99.90;;;;;;5158520;28;20213;-52
2022/01/02 08:41:45;;;;;;;4.00;3.67;;;10.10;99.90;;;;;;5143866;28;20196;-54
2022/01/02 08:44:16;;;;;;;6.70;4.30;;;10.10;99.90;;;;;;5142466;28;20245;-53
2022/01/02 08:46:46;;;;;;;7.40;3.03;;;10.20;99.90;;;;;;5164282;28;20184;-52
2022/01/02 08:49:17;;;;;;;4.17;3.77;;;10.20;99.90;;;;;;5152032;28;20279;-52
2022/01/02 08:51:48;;;;;;;10.80;4.47;;;10.10;99.90;;;;;;5143921;28;20178;-53
2022/01/02 08:54:18;;;;;;;4.77;4.33;;;10.10;99.90;;;;;;5147422;28;20236;-52
2022/01/02 08:56:49;;;;;;;8.07;4.23;;;10.10;99.90;;;;;;5144752;28;20349;-54
2022/01/02 08:59:24;;;;;;;9.13;3.83;;;10.10;99.90;;;;;;5157480;28;20231;-52
2022/01/02 09:01:55;;;;;;;5.40;4.70;;;10.20;99.90;;;;;;5161201;28;20185;-52
2022/01/02 09:04:26;;;;;;;14.37;4.60;;;10.10;99.90;;;;;;5165302;28;20472;-53
2022/01/02 09:06:57;;;;;;;7.20;4.40;;;10.10;99.90;;;;;;5162983;28;20436;-53
2022/01/02 09:09:28;;;;;;;7.00;4.90;;;10.10;99.90;;;;;;5154990;28;20188;-52
2022/01/02 09:11:58;;;;;;;6.03;5.50;;;10.00;99.90;;;;;;5163616;28;20707;-52
2022/01/02 09:14:29;;;;;;;6.13;5.37;;;10.00;99.90;;;;;;5167057;28;20617;-52
2022/01/02 09:16:59;;;;;;;4.63;4.17;;;10.10;99.90;;;;;;5164943;28;21718;-53
2022/01/02 09:19:30;;;;;;;7.53;4.77;;;10.10;99.90;;;;;;5149114;28;20268;-54
2022/01/02 09:22:01;;;;;;;7.80;4.70;;;10.20;99.90;;;;;;5171439;28;20189;-51
2022/01/02 09:24:31;;;;;;;4.63;3.70;;;10.20;99.90;;;;;;5148453;28;20300;-53
2022/01/02 09:27:02;;;;;;;6.03;3.80;;;10.40;99.90;;;;;;5139480;28;20645;-52
2022/01/02 09:29:32;;;;;;;12.53;3.97;;;10.50;99.90;;;;;;5149810;28;20187;-52
2022/01/02 09:32:03;;;;;;;3.50;3.20;;;10.50;99.90;;;;;;5164454;28;20264;-52
2022/01/02 09:34:34;;;;;;;3.83;3.43;;;10.50;99.90;;;;;;5149847;28;20216;-51
2022/01/02 09:37:04;;;;;;;8.17;3.90;;;10.60;99.90;;;;;;5151339;28;20700;-52
2022/01/02 09:39:35;;;;;;;4.20;3.47;;;10.60;99.90;;;;;;5150753;28;20219;-53
2022/01/02 09:42:06;;;;;;;6.60;4.60;;;10.60;99.90;;;;;;5156215;28;20870;-51
2022/01/02 09:44:37;;;;;;;5.07;4.07;;;10.60;99.90;;;;;;5162840;28;20471;-52
2022/01/02 09:47:09;;;;;;;6.87;4.20;;;10.60;99.90;;;;;;5165427;28;20228;-51
2022/01/02 09:49:39;;;;;;;6.00;4.03;;;10.60;99.90;;;;;;5166602;28;20177;-54
2022/01/02 09:52:10;;;;;;;6.50;3.37;;;10.60;99.90;;;;;;5154271;28;21005;-51
2022/01/02 09:54:41;;;;;;;9.80;4.57;;;10.70;99.90;;;;;;5147711;28;20204;-52
2022/01/02 09:57:11;;;;;;;8.70;4.47;;;10.90;99.90;;;;;;5161767;28;20185;-53
2022/01/02 09:59:42;;;;;;;3.73;3.53;;;10.90;99.90;;;;;;5165697;28;20193;-52
2022/01/02 10:02:12;;;;;;;8.67;3.93;;;10.90;99.90;;;;;;5165166;28;20196;-53
2022/01/02 10:04:43;;;;;;;4.70;4.30;;;10.90;99.90;;;;;;5146060;28;20631;-53
2022/01/02 10:07:33;;;;;;;4.07;3.67;;;11.00;99.90;;;;;;5155423;28;20728;-55
2022/01/02 10:10:10;;;;;;;5.00;3.17;;;11.10;99.90;;;;;;5163682;28;20242;-52
2022/01/02 10:12:40;;;;;;;3.30;3.07;;;11.10;99.90;;;;;;5146180;28;20436;-53
2022/01/02 10:15:28;;;;;;;4.93;3.73;;;11.10;99.90;;;;;;5151015;28;20438;-53
2022/01/02 10:18:09;;;;;;;28.73;9.00;;;11.10;99.90;;;;;;5155704;28;20193;-53
2022/01/02 10:20:43;;;;;;;9.23;4.90;;;11.10;99.90;;;;;;5165208;28;20950;-53
2022/01/02 10:23:17;;;;;;;4.63;4.10;;;11.20;99.90;;;;;;5163133;28;20932;-52
2022/01/02 10:26:03;;;;;;;12.47;4.10;;;11.10;99.90;;;;;;5147103;28;20936;-52
2022/01/02 10:28:37;;;;;;;11.03;4.67;;;11.30;99.90;;;;;;5162912;28;20821;-54
2022/01/02 10:31:10;;;;;;;8.33;4.10;;;11.40;99.90;;;;;;5160104;28;22568;-52
2022/01/02 10:33:50;;;;;;;6.37;4.93;;;11.40;99.90;;;;;;5166430;28;20506;-53
2022/01/02 10:36:35;;;;;;;7.47;4.40;;;11.40;99.90;;;;;;5157134;28;20428;-53
2022/01/02 10:39:11;;;;;;;9.90;4.80;;;11.30;99.90;;;;;;5156482;28;20467;-53
2022/01/02 10:41:50;;;;;;;5.50;3.37;;;11.40;99.90;;;;;;5167012;28;20432;-52
2022/01/02 10:44:21;;;;;;;4.43;3.13;;;11.40;99.90;;;;;;5159436;28;20463;-54
2022/01/02 10:47:08;;;;;;;3.90;3.00;;;11.50;99.90;;;;;;5151349;28;20435;-53
2022/01/02 10:50:04;;;;;;;9.50;4.80;;;11.50;99.90;;;;;;5162875;28;20200;-55
2022/01/02 10:52:39;;;;;;;11.50;4.87;;;11.50;99.90;;;;;;5165002;28;21024;-52
2022/01/02 10:55:21;;;;;;;11.53;5.50;;;11.40;99.90;;;;;;5154318;28;20448;-55
2022/01/02 10:57:54;;;;;;;6.93;3.73;;;11.30;99.90;;;;;;5159856;28;20554;-53
2022/01/02 11:00:26;;;;;;;6.93;4.10;;;11.20;99.90;;;;;;5156315;28;20438;-55
2022/01/02 11:02:59;;;;;;;13.50;6.00;;;11.20;99.90;;;;;;5160220;28;20490;-52
2022/01/02 11:05:30;;;;;;;6.50;4.13;;;11.10;99.90;;;;;;5153409;28;20863;-51
2022/01/02 11:08:03;;;;;;;16.77;7.10;;;11.10;99.90;;;;;;5161855;28;20460;-52
2022/01/02 11:10:35;;;;;;;22.20;7.37;;;11.00;99.90;;;;;;5164176;28;20450;-52
2022/01/02 11:13:06;;;;;;;19.90;6.50;;;10.90;99.90;;;;;;5145086;28;20531;-53
2022/01/02 11:15:36;;;;;;;18.60;7.17;;;11.10;99.90;;;;;;5151266;28;20515;-53
2022/01/02 11:18:07;;;;;;;42.33;12.87;;;10.90;99.90;;;;;;5142105;28;20202;-53
2022/01/02 11:20:39;;;;;;;19.23;6.90;;;10.90;99.90;;;;;;5165499;28;20251;-53
2022/01/02 11:23:32;;;;;;;39.57;11.60;;;10.80;99.90;;;;;;5142548;28;20571;-53
2022/01/02 11:26:18;;;;;;;21.13;8.30;;;10.80;99.90;;;;;;5156639;28;20428;-54
2022/01/02 11:28:50;;;;;;;23.47;8.27;;;10.70;99.90;;;;;;5138020;28;20467;-53
2022/01/02 11:31:43;;;;;;;27.47;10.90;;;10.70;99.90;;;;;;5159048;28;20539;-54
2022/01/02 11:34:26;;;;;;;21.70;9.20;;;10.70;99.90;;;;;;5155332;28;20439;-52
2022/01/02 11:37:11;;;;;;;21.00;8.00;;;10.60;99.90;;;;;;5161098;28;20791;-53
2022/01/02 11:39:56;;;;;;;22.43;9.80;;;10.60;99.90;;;;;;5154281;28;20462;-52
2022/01/02 11:42:38;;;;;;;23.33;9.63;;;10.60;99.90;;;;;;5162913;28;20444;-52
2022/01/02 11:45:23;;;;;;;34.43;16.70;;;10.60;99.90;;;;;;5162059;28;20459;-57
2022/01/02 11:47:55;;;;;;;18.67;7.73;;;10.70;99.90;;;;;;5160329;28;20462;-52
2022/01/02 11:50:35;;;;;;;21.83;9.13;;;10.60;99.90;;;;;;5141350;28;20443;-52
2022/01/02 11:53:09;;;;;;;25.47;8.37;;;10.60;99.90;;;;;;5160328;28;20797;-53
2022/01/02 11:55:44;;;;;;;22.40;8.37;;;10.50;99.90;;;;;;5161359;28;20440;-51
2022/01/02 11:58:46;;;;;;;22.10;8.73;;;10.50;99.90;;;;;;5160358;28;20510;-52
2022/01/02 12:03:51;;;;;;;12.43;6.30;;;10.40;99.90;;;;;;5168187;23;20492;-50
2022/01/02 12:06:35;;;;;;;12.40;4.50;;;10.40;99.90;;;;;;5155864;28;20432;-51
2022/01/02 12:09:32;;;;;;;7.77;5.23;;;10.40;99.90;;;;;;5136661;28;20497;-51
2022/01/02 12:12:06;;;;;;;8.80;6.10;;;10.40;99.90;;;;;;5144749;28;20534;-51
2022/01/02 12:14:53;;;;;;;10.53;5.00;;;10.40;99.90;;;;;;5148634;28;20931;-51
2022/01/02 12:17:25;;;;;;;12.73;5.77;;;10.40;99.90;;;;;;5133258;28;20436;-50
2022/01/02 12:20:00;;;;;;;12.20;4.90;;;10.40;99.90;;;;;;5153576;28;21006;-52
2022/01/02 12:22:45;;;;;;;7.93;5.70;;;10.30;99.90;;;;;;5154745;28;20991;-50
2022/01/02 12:25:22;;;;;;;8.00;4.93;;;10.40;99.90;;;;;;5140364;28;20486;-49
2022/01/02 12:27:58;;;;;;;11.93;5.03;;;10.40;99.90;;;;;;5153929;28;20517;-50
2022/01/02 12:30:28;;;;;;;5.23;4.70;;;10.40;99.90;;;;;;5154514;28;20439;-49
2022/01/02 12:32:59;;;;;;;8.33;5.87;;;10.40;99.90;;;;;;5156324;28;20466;-51
2022/01/02 12:35:39;;;;;;;8.03;4.30;;;10.40;99.90;;;;;;5152763;28;20197;-51
2022/01/02 12:38:10;;;;;;;9.97;5.17;;;10.40;99.90;;;;;;5150866;28;20192;-49
2022/01/02 12:40:40;;;;;;;8.53;5.87;;;10.50;99.90;;;;;;5141747;28;20841;-51
2022/01/02 12:43:11;;;;;;;14.43;4.93;;;10.30;99.90;;;;;;5130747;28;20546;-50
2022/01/02 12:45:42;;;;;;;10.97;6.07;;;10.40;99.90;;;;;;5158106;28;20216;-52
2022/01/02 12:48:13;;;;;;;13.17;5.17;;;10.30;99.90;;;;;;5139078;28;20440;-53
2022/01/02 12:50:44;;;;;;;9.47;5.53;;;10.40;99.90;;;;;;5156849;28;20192;-51
2022/01/02 12:53:24;;;;;;;5.87;5.17;;;10.30;99.90;;;;;;5156219;28;20197;-50
2022/01/02 12:55:57;;;;;;;5.50;4.97;;;10.20;99.90;;;;;;5141021;28;20443;-52
2022/01/02 12:58:30;;;;;;;15.93;6.03;;;10.20;99.90;;;;;;5149305;28;20468;-52
2022/01/02 13:01:04;;;;;;;6.10;4.47;;;10.10;99.90;;;;;;5157361;28;20436;-52
2022/01/02 13:03:36;;;;;;;5.77;5.10;;;10.20;99.90;;;;;;5151568;28;20530;-51
2022/01/02 13:06:07;;;;;;;7.97;6.07;;;10.20;99.90;;;;;;5154055;28;20531;-53
2022/01/02 13:08:37;;;;;;;11.57;5.20;;;10.20;99.90;;;;;;5143689;28;20446;-52
2022/01/02 13:11:09;;;;;;;11.90;5.10;;;10.10;99.90;;;;;;5160152;28;20772;-51
2022/01/02 13:13:40;;;;;;;15.97;4.90;;;10.20;99.90;;;;;;5157298;28;20215;-53
2022/01/02 13:16:10;;;;;;;12.33;4.60;;;10.30;99.90;;;;;;5163988;28;20944;-51
2022/01/02 13:18:41;;;;;;;9.93;4.47;;;10.20;99.90;;;;;;5140622;28;20181;-50
2022/01/02 13:21:16;;;;;;;7.43;4.90;;;10.10;99.90;;;;;;5158474;28;20208;-50
2022/01/02 13:23:46;;;;;;;11.33;4.97;;;10.10;99.90;;;;;;5160240;28;20609;-50